CDT,Max TemperatureF,Mean TemperatureF,Min TemperatureF,Max Dew PointF,MeanDew PointF,Min DewpointF,Max Humidity, Mean Humidity, Min Humidity, Max Sea Level PressureIn, Mean Sea Level PressureIn, Min Sea Level PressureIn, Max VisibilityMiles, Mean VisibilityMiles, Min VisibilityMiles, Max Wind SpeedMPH, Mean Wind SpeedMPH, Max Gust SpeedMPH,PrecipitationIn, CloudCover, Events, WindDirDegrees
2013-6-1,77,71,64,69,63,61,93,83,73,29.98,29.90,29.78,10,8,2,29,9,39,1.25,7,Rain-Thunderstorm,178
2013-6-2,75,68,61,63,60,56,93,75,57,29.99,29.93,29.89,10,9,2,14,7,21,T,5,,282
2013-6-3,73,64,54,56,53,50,93,72,51,30.09,30.03,29.98,10,10,9,12,5,18,0.00,4,,357
2013-6-4,80,65,50,59,54,49,89,66,43,30.11,30.05,30.00,10,10,6,10,3,14,0.00,1,,73
2013-6-5,85,73,61,63,58,56,84,61,37,30.02,29.93,29.83,10,10,10,12,3,15,T,2,Rain,48
2013-6-6,84,76,68,66,63,59,90,68,46,29.82,29.79,29.76,10,8,3,12,3,14,0.08,5,Rain,323
2013-6-7,79,72,64,66,62,59,87,73,58,29.88,29.82,29.78,10,7,1,14,4,16,0.17,5,Rain,344
2013-6-8,83,73,62,61,58,55,90,66,42,30.01,29.94,29.87,10,7,2,9,3,12,0.00,4,,220
2013-6-9,77,70,62,67,63,59,90,73,56,30.01,29.93,29.82,10,10,6,16,5,22,0.07,5,Rain,149
2013-6-10,78,71,63,65,64,61,93,77,60,29.94,29.86,29.81,10,9,4,13,5,20,0.04,6,Rain,221
2013-6-11,88,74,59,73,63,57,97,73,48,30.01,29.95,29.89,10,6,0,14,4,17,0.10,1,Fog-Rain,215
2013-6-12,93,83,73,72,71,68,87,68,49,29.99,29.88,29.78,10,10,9,25,11,37,0.00,0,,228
2013-6-13,84,74,63,69,62,51,69,53,37,29.98,29.86,29.73,10,10,10,24,11,31,0.00,3,,318
2013-6-14,84,71,57,59,56,52,86,62,37,30.07,30.03,29.97,10,10,10,14,4,18,0.00,0,,3
2013-6-15,88,74,60,63,59,56,90,62,34,30.12,30.03,29.96,10,9,6,14,5,21,0.00,0,,207
2013-6-16,85,78,70,69,66,63,90,73,55,30.04,29.99,29.95,10,9,5,20,3,29,T,2,Rain,194
2013-6-17,90,78,66,70,66,60,93,70,47,29.96,29.93,29.86,10,6,2,22,5,28,0.40,5,Rain-Thunderstorm,102
2013-6-18,88,75,62,64,62,59,93,68,42,29.98,29.92,29.85,10,10,8,22,4,32,T,2,Rain-Thunderstorm,351
2013-6-19,86,74,62,67,63,60,93,69,45,30.08,30.03,29.98,10,10,6,9,4,14,0.00,1,,85
2013-6-20,88,77,66,66,64,62,93,68,43,30.16,30.12,30.08,10,9,6,16,4,22,T,1,Thunderstorm,101
2013-6-21,91,79,67,73,68,65,93,73,52,30.17,30.13,30.09,10,9,6,16,5,23,0.04,3,Rain,174
2013-6-22,90,81,71,70,68,66,90,69,47,30.16,30.11,30.04,10,10,6,26,6,43,0.00,2,,205
2013-6-23,82,76,69,73,69,67,90,80,69,30.11,30.08,30.03,10,8,2,16,3,23,0.25,2,Rain,158
2013-6-24,80,74,68,71,68,64,97,86,74,30.18,30.12,30.04,10,6,0,16,5,22,4.10,7,Fog-Rain-Thunderstorm,134
2013-6-25,91,82,72,75,72,69,93,75,56,30.05,29.98,29.88,10,10,6,17,8,21,0.00,1,,202
2013-6-26,89,81,73,74,72,70,93,76,59,29.93,29.83,29.70,10,8,1,25,11,32,0.85,4,Rain-Thunderstorm,211
2013-6-27,93,83,72,77,72,68,100,75,49,29.84,29.81,29.76,10,10,9,17,6,24,0.00,1,,285
2013-6-28,91,82,73,70,64,56,74,54,34,29.80,29.72,29.65,10,10,10,18,8,25,T,2,,299
2013-6-29,84,74,64,65,62,57,87,67,47,29.68,29.65,29.60,10,10,10,26,7,36,0.03,3,Rain-Thunderstorm,287
2013-6-30,79,72,64,67,65,62,100,84,67,29.84,29.76,29.68,10,9,2,16,5,21,0.17,7,Rain,336